Pagina principale
METAR-TAF:

METAR-TAF

Aeroporti :

Aeroporto di Nîmes–Alès–Camargue–Cévennes

Nîmes, Francia

latitudine: 43-45N, longitudine: 004-25E, altezza: 94 m

Osservazione

Il bollettino è stato emesso 44 minuti fa, alle 06:30 UTC
Vento 10 kt da nord
Temperature 5°C
Umidità 75%
Pressione 1009 hPa
Visibilità 10 km o più
nessuna nube inferiore a 1500 m e nessun cumulonembo

METAR: LFTW 180630Z AUTO 01010KT CAVOK 05/01 Q1009 NOSIG

Ora: 08:14 (07:14 UTC)

Previsione

Il bollettino è stato emesso 5 ore e 14 minuti fa, alle 02:00 UTC
Previsione valida dal 18 alle 03 UTC al 19 alle 03 UTC
Vento 8 kt da nord
Visibilità 10 km o più
nessuna nube inferiore a 1500 m e nessun cumulonembo
Evoluzione graduale
dal 18 alle 17 UTC al 18 alle 19 UTC
Vento 18 kt da nord con raffiche fino a 28 kt
Probabilità 30% :
Temporaneamente
dal 18 alle 22 UTC al 19 alle 03 UTC
pioggia

TAF: LFTW 180200Z 1803/1903 01008KT CAVOK BECMG 1817/1819 01018G28KT PROB30 TEMPO 1822/1903 RA

Osservazioni e previsioni meteorologiche di più di 4000 aeroporti (messaggi METAR e TAF).

Le stazioni disponibili sono rappresentate dai dischi gialli e rossi sulla carta.

Puntare il mouse per vedere il nome della stazione.

Clicca sopra per visualizzare le osservazioni e previsioni meteorologiche.

Per cambiare la mappa : fare clic sui pulsanti verdi con una croce nera per ingrandire, il pulsante verde con un trattino per diminuire, o sulla freccia verde per le mappe adiacenti.


METAR-TAF: